Time;durP1;ratioP1;P1;durP2;ratioP2;P2;SDS_P1;SDS_P2;PMS_P1;PMS_P2;Temp;Humidity;BMP_temperature;BMP_pressure;BME280_temperature;BME280_humidity;BME280_pressure;Samples;Min_cycle;Max_cycle;Signal;HPM_P1;HPM_P2
2024/02/07 00:01:57;;;;;;;5.07;3.37;;;;;;;;;;5073605;28;20539;-65
2024/02/07 00:04:24;;;;;;;3.33;2.63;;;;;;;;;;5073519;28;20443;-65
2024/02/07 00:06:50;;;;;;;3.83;3.50;;;;;;;;;;5073531;28;20908;-65
2024/02/07 00:09:17;;;;;;;3.50;3.20;;;;;;;;;;5073322;28;20479;-65
2024/02/07 00:11:46;;;;;;;5.40;2.43;;;;;;;;;;5073563;28;20444;-66
2024/02/07 00:14:13;;;;;;;8.00;3.67;;;;;;;;;;5073494;28;20492;-65
2024/02/07 00:16:40;;;;;;;3.30;3.00;;;;;;;;;;5073593;28;21053;-65
2024/02/07 00:19:07;;;;;;;4.37;3.80;;;;;;;;;;5073326;28;20536;-65
2024/02/07 00:21:34;;;;;;;4.53;3.23;;;;;;;;;;5073179;28;20462;-66
2024/02/07 00:24:01;;;;;;;4.07;2.93;;;;;;;;;;5073220;28;20459;-65
2024/02/07 00:26:28;;;;;;;3.13;2.83;;;;;;;;;;5073226;28;20471;-65
2024/02/07 00:28:56;;;;;;;4.63;3.43;;;;;;;;;;5073056;28;20575;-65
2024/02/07 00:31:24;;;;;;;9.00;3.57;;;;;;;;;;5073118;28;20439;-65
2024/02/07 00:33:51;;;;;;;3.50;3.20;;;;;;;;;;5073008;28;20443;-65
2024/02/07 00:36:17;;;;;;;3.50;3.10;;;;;;;;;;5072958;28;20443;-65
2024/02/07 00:38:44;;;;;;;3.67;2.90;;;;;;;;;;5073316;28;20447;-66
2024/02/07 00:41:19;;;;;;;5.10;3.67;;;;;;;;;;5073151;28;20545;-66
2024/02/07 00:43:46;;;;;;;3.63;3.03;;;;;;;;;;5073134;28;20934;-66
2024/02/07 00:46:14;;;;;;;5.10;3.00;;;;;;;;;;5072983;28;20473;-65
2024/02/07 00:48:41;;;;;;;2.93;2.60;;;;;;;;;;5072820;28;20565;-66
2024/02/07 00:51:08;;;;;;;3.67;2.60;;;;;;;;;;5073099;28;20530;-66
2024/02/07 00:53:35;;;;;;;3.30;3.00;;;;;;;;;;5073078;28;20482;-66
2024/02/07 00:56:02;;;;;;;3.13;2.77;;;;;;;;;;5072968;28;20443;-66
2024/02/07 00:58:29;;;;;;;4.00;2.40;;;;;;;;;;5072954;28;20448;-66
2024/02/07 01:00:56;;;;;;;2.80;2.40;;;;;;;;;;5072886;28;20497;-65
2024/02/07 01:03:25;;;;;;;3.37;2.50;;;;;;;;;;5072691;28;20558;-66
2024/02/07 01:05:51;;;;;;;3.47;2.47;;;;;;;;;;5072948;28;20474;-66
2024/02/07 01:08:18;;;;;;;5.90;2.60;;;;;;;;;;5072789;28;20475;-66
2024/02/07 01:10:46;;;;;;;4.00;2.77;;;;;;;;;;5072809;28;20450;-66
2024/02/07 01:13:13;;;;;;;8.40;2.50;;;;;;;;;;5075094;28;20516;-65
2024/02/07 01:15:40;;;;;;;2.50;2.30;;;;;;;;;;5076757;28;20502;-67
2024/02/07 01:18:07;;;;;;;6.20;2.67;;;;;;;;;;5076634;28;20969;-66
2024/02/07 01:20:36;;;;;;;3.27;2.93;;;;;;;;;;5076850;28;20483;-66
2024/02/07 01:23:03;;;;;;;4.00;2.77;;;;;;;;;;5076771;28;20447;-66
2024/02/07 01:25:30;;;;;;;4.57;2.20;;;;;;;;;;5076490;28;20471;-65
2024/02/07 01:27:57;;;;;;;3.60;2.63;;;;;;;;;;5076396;28;20525;-66
2024/02/07 01:30:24;;;;;;;2.43;2.23;;;;;;;;;;5076363;28;20535;-66
2024/02/07 01:32:51;;;;;;;2.77;2.23;;;;;;;;;;5076424;28;21024;-66
2024/02/07 01:35:18;;;;;;;4.27;2.57;;;;;;;;;;5076476;28;20447;-66
2024/02/07 01:37:46;;;;;;;3.30;2.43;;;;;;;;;;5076380;28;20450;-66
2024/02/07 01:40:14;;;;;;;2.60;2.40;;;;;;;;;;5076387;28;20542;-66
2024/02/07 01:42:41;;;;;;;2.40;2.20;;;;;;;;;;5076234;28;20637;-65
2024/02/07 01:45:19;;;;;;;4.63;2.53;;;;;;;;;;5075988;28;20525;-66
2024/02/07 01:47:45;;;;;;;2.50;2.30;;;;;;;;;;5076351;28;20530;-65
2024/02/07 01:50:12;;;;;;;4.30;2.73;;;;;;;;;;5076035;28;20483;-65
2024/02/07 01:52:41;;;;;;;5.53;2.90;;;;;;;;;;5076151;28;20911;-66
2024/02/07 01:55:10;;;;;;;7.23;2.30;;;;;;;;;;5075989;28;20479;-66
2024/02/07 01:57:37;;;;;;;1.03;0.93;;;;;;;;;;5075909;28;20473;-66
2024/02/07 02:00:06;;;;;;;1.20;0.80;;;;;;;;;;5076134;28;20886;-66
2024/02/07 02:02:33;;;;;;;0.87;0.73;;;;;;;;;;5076044;28;20474;-66
2024/02/07 02:05:00;;;;;;;2.00;0.80;;;;;;;;;;5075906;28;20500;-66
2024/02/07 02:07:27;;;;;;;2.00;0.70;;;;;;;;;;5075817;28;20439;-65
2024/02/07 02:09:54;;;;;;;1.80;0.63;;;;;;;;;;5075635;28;20567;-66
2024/02/07 02:12:22;;;;;;;1.20;0.60;;;;;;;;;;5075572;28;21033;-66
2024/02/07 02:14:49;;;;;;;1.67;0.70;;;;;;;;;;5075810;28;20860;-66
2024/02/07 02:17:16;;;;;;;0.60;0.50;;;;;;;;;;5075735;28;20534;-65
2024/02/07 02:19:43;;;;;;;0.80;0.60;;;;;;;;;;5075467;28;20969;-65
2024/02/07 02:22:15;;;;;;;0.93;0.50;;;;;;;;;;5075620;28;20494;-65
2024/02/07 02:24:50;;;;;;;2.90;0.90;;;;;;;;;;5074297;28;20482;-66
2024/02/07 02:27:28;;;;;;;0.93;0.60;;;;;;;;;;5075358;28;20466;-66
2024/02/07 02:29:58;;;;;;;0.80;0.60;;;;;;;;;;5075392;28;20577;-65
2024/02/07 02:32:27;;;;;;;1.67;0.73;;;;;;;;;;5075694;28;20482;-65
2024/02/07 02:34:54;;;;;;;1.70;0.60;;;;;;;;;;5075274;28;20547;-65
2024/02/07 02:37:21;;;;;;;0.60;0.50;;;;;;;;;;5075179;28;20539;-65
2024/02/07 02:39:48;;;;;;;0.73;0.50;;;;;;;;;;5075330;28;20849;-66
2024/02/07 02:42:16;;;;;;;0.80;0.50;;;;;;;;;;5075087;28;20997;-65
2024/02/07 02:44:43;;;;;;;1.20;0.50;;;;;;;;;;5075131;28;20451;-65
2024/02/07 02:47:13;;;;;;;0.70;0.60;;;;;;;;;;5075104;28;20538;-65
2024/02/07 02:49:40;;;;;;;2.30;0.70;;;;;;;;;;5074900;28;20849;-66
2024/02/07 02:52:07;;;;;;;0.70;0.50;;;;;;;;;;5075163;28;20527;-65
2024/02/07 02:54:36;;;;;;;1.53;0.60;;;;;;;;;;5075088;28;20913;-66
2024/02/07 02:57:05;;;;;;;0.70;0.53;;;;;;;;;;5074851;28;20943;-65
2024/02/07 02:59:35;;;;;;;1.33;0.60;;;;;;;;;;5074938;28;20446;-65
2024/02/07 03:02:08;;;;;;;1.43;0.60;;;;;;;;;;5074726;28;21048;-65
2024/02/07 03:04:41;;;;;;;2.70;0.50;;;;;;;;;;5074932;28;20447;-65
2024/02/07 03:07:36;;;;;;;1.47;0.67;;;;;;;;;;5074905;28;20447;-65
2024/02/07 03:10:01;;;;;;;2.13;0.60;;;;;;;;;;5074481;28;20998;-65
2024/02/07 03:12:27;;;;;;;1.20;0.60;;;;;;;;;;5074522;28;20542;-65
2024/02/07 03:14:56;;;;;;;1.37;0.50;;;;;;;;;;5074758;28;20934;-65
2024/02/07 03:17:23;;;;;;;2.20;0.60;;;;;;;;;;5074622;28;20474;-65
2024/02/07 03:19:51;;;;;;;1.47;0.60;;;;;;;;;;5074402;28;20530;-65
2024/02/07 03:22:18;;;;;;;0.90;0.50;;;;;;;;;;5074452;28;20534;-65
2024/02/07 03:24:45;;;;;;;0.93;0.50;;;;;;;;;;5074357;28;20448;-65
2024/02/07 03:27:13;;;;;;;0.83;0.60;;;;;;;;;;5074054;28;20493;-65
2024/02/07 03:29:40;;;;;;;0.67;0.50;;;;;;;;;;5074324;28;20479;-66
2024/02/07 03:32:07;;;;;;;1.17;0.70;;;;;;;;;;5074282;28;20535;-66
2024/02/07 03:34:36;;;;;;;1.30;0.50;;;;;;;;;;5074172;28;20443;-65
2024/02/07 03:37:05;;;;;;;0.90;0.63;;;;;;;;;;5073939;28;20808;-65
2024/02/07 03:39:32;;;;;;;0.77;0.67;;;;;;;;;;5074064;28;20444;-65
2024/02/07 03:41:59;;;;;;;1.00;0.60;;;;;;;;;;5073950;28;20439;-65
2024/02/07 03:44:26;;;;;;;0.50;0.40;;;;;;;;;;5074089;28;20447;-65
2024/02/07 03:46:54;;;;;;;0.70;0.50;;;;;;;;;;5073970;28;20566;-65
2024/02/07 03:49:21;;;;;;;0.60;0.50;;;;;;;;;;5073798;28;20566;-65
2024/02/07 03:51:48;;;;;;;2.20;0.60;;;;;;;;;;5073784;28;20538;-65
2024/02/07 03:54:18;;;;;;;0.80;0.60;;;;;;;;;;5074136;28;20535;-66
2024/02/07 03:56:45;;;;;;;0.70;0.70;;;;;;;;;;5073925;28;20544;-66
2024/02/07 03:59:12;;;;;;;1.70;0.60;;;;;;;;;;5073839;28;20471;-65
2024/02/07 04:01:38;;;;;;;0.60;0.50;;;;;;;;;;5073722;28;20530;-65
2024/02/07 04:04:08;;;;;;;1.10;0.50;;;;;;;;;;5073609;28;20802;-65
2024/02/07 04:06:35;;;;;;;0.60;0.57;;;;;;;;;;5073539;28;20546;-66
2024/02/07 04:09:05;;;;;;;0.90;0.60;;;;;;;;;;5073405;28;20915;-65
2024/02/07 05:16:52;;;;;;;2.93;0.90;;;;;;;;;;5072716;28;20192;-65
2024/02/07 05:19:19;;;;;;;1.08;0.70;;;;;;;;;;5072615;28;20913;-65
2024/02/07 05:21:46;;;;;;;1.35;0.70;;;;;;;;;;5072542;28;20276;-65
2024/02/07 05:24:13;;;;;;;1.47;0.60;;;;;;;;;;5072785;28;20281;-65
2024/02/07 05:26:40;;;;;;;2.13;0.80;;;;;;;;;;5072507;28;20505;-65
2024/02/07 05:29:07;;;;;;;1.85;0.80;;;;;;;;;;5072597;28;20436;-65
2024/02/07 05:31:34;;;;;;;5.50;0.90;;;;;;;;;;5072554;28;20567;-65
2024/02/07 05:34:02;;;;;;;1.50;0.70;;;;;;;;;;5072512;28;20947;-66
2024/02/07 05:36:29;;;;;;;1.40;0.90;;;;;;;;;;5072424;28;20440;-65
2024/02/07 05:38:56;;;;;;;1.60;0.77;;;;;;;;;;5072624;28;20527;-65
2024/02/07 05:41:24;;;;;;;2.10;0.77;;;;;;;;;;5072544;28;20454;-65
2024/02/07 05:43:52;;;;;;;4.20;0.83;;;;;;;;;;5072383;28;20196;-65
2024/02/07 05:46:19;;;;;;;1.67;0.87;;;;;;;;;;5072464;28;20448;-65
2024/02/07 05:48:46;;;;;;;1.73;0.60;;;;;;;;;;5072251;28;20542;-66
2024/02/07 05:51:21;;;;;;;1.57;0.60;;;;;;;;;;5072500;28;20217;-65
2024/02/07 05:53:48;;;;;;;2.20;0.70;;;;;;;;;;5072417;28;20530;-65
2024/02/07 05:56:16;;;;;;;2.10;0.90;;;;;;;;;;5072379;28;20443;-65
2024/02/07 05:58:43;;;;;;;1.93;0.70;;;;;;;;;;5073705;28;20447;-65
2024/02/07 06:01:11;;;;;;;2.57;0.60;;;;;;;;;;5075780;28;20530;-66
2024/02/07 06:03:38;;;;;;;0.80;0.80;;;;;;;;;;5076014;28;20447;-66
2024/02/07 06:06:06;;;;;;;0.90;0.60;;;;;;;;;;5075944;28;20951;-66
2024/02/07 06:08:35;;;;;;;1.00;0.80;;;;;;;;;;5075964;28;20486;-65
2024/02/07 06:11:03;;;;;;;2.13;0.90;;;;;;;;;;5075691;28;20561;-66
2024/02/07 06:13:31;;;;;;;3.10;0.80;;;;;;;;;;5075539;28;20447;-65
2024/02/07 06:15:59;;;;;;;0.80;0.67;;;;;;;;;;5075500;28;20796;-66
2024/02/07 06:18:26;;;;;;;0.80;0.67;;;;;;;;;;5075434;28;20965;-66
2024/02/07 06:20:53;;;;;;;1.50;0.93;;;;;;;;;;5075964;28;20454;-65
2024/02/07 06:23:20;;;;;;;3.07;0.70;;;;;;;;;;5075547;28;20534;-66
2024/02/07 06:25:48;;;;;;;1.40;0.67;;;;;;;;;;5075455;28;20469;-66
2024/02/07 06:28:16;;;;;;;3.50;1.17;;;;;;;;;;5075363;28;20444;-66
2024/02/07 06:30:43;;;;;;;1.60;0.90;;;;;;;;;;5075249;28;20475;-65
2024/02/07 06:33:10;;;;;;;4.33;1.20;;;;;;;;;;5075449;28;20539;-65
2024/02/07 06:35:37;;;;;;;2.25;0.82;;;;;;;;;;5075364;28;20443;-65
2024/02/07 06:38:04;;;;;;;4.33;0.80;;;;;;;;;;5075375;28;20221;-65
2024/02/07 06:40:31;;;;;;;3.57;0.90;;;;;;;;;;5075241;28;20444;-66
2024/02/07 06:42:59;;;;;;;3.03;1.00;;;;;;;;;;5075018;28;20481;-66
2024/02/07 06:45:26;;;;;;;1.77;0.93;;;;;;;;;;5075182;28;20443;-65
2024/02/07 06:47:53;;;;;;;2.40;1.57;;;;;;;;;;5075185;28;20526;-65
2024/02/07 06:50:22;;;;;;;3.47;1.37;;;;;;;;;;5075075;28;20475;-65
2024/02/07 06:52:49;;;;;;;3.70;1.10;;;;;;;;;;5075014;28;20454;-65
2024/02/07 06:55:16;;;;;;;1.73;0.70;;;;;;;;;;5074882;28;20444;-66
2024/02/07 06:57:43;;;;;;;2.53;0.90;;;;;;;;;;5074831;28;20272;-65
2024/02/07 07:00:11;;;;;;;2.40;0.90;;;;;;;;;;5074915;28;20534;-66
2024/02/07 07:02:38;;;;;;;1.80;1.10;;;;;;;;;;5074791;28;20538;-66
2024/02/07 07:05:06;;;;;;;1.93;0.90;;;;;;;;;;5074653;28;20547;-65
2024/02/07 07:07:33;;;;;;;1.10;0.80;;;;;;;;;;5074726;28;20450;-66
2024/02/07 07:10:00;;;;;;;1.53;1.23;;;;;;;;;;5073748;28;20471;-65
2024/02/07 07:12:27;;;;;;;2.40;1.03;;;;;;;;;;5074752;28;20443;-65
2024/02/07 07:14:54;;;;;;;5.10;1.03;;;;;;;;;;5074454;28;20530;-65
2024/02/07 07:17:22;;;;;;;2.90;1.10;;;;;;;;;;5074442;28;20526;-66
2024/02/07 07:19:49;;;;;;;4.67;1.50;;;;;;;;;;5074376;28;20444;-66
2024/02/07 07:22:16;;;;;;;2.60;1.20;;;;;;;;;;5074393;28;20443;-65
2024/02/07 07:24:44;;;;;;;4.87;1.20;;;;;;;;;;5074248;28;20444;-65
2024/02/07 07:27:11;;;;;;;2.27;1.00;;;;;;;;;;5074079;28;20559;-66
2024/02/07 07:29:38;;;;;;;3.93;0.90;;;;;;;;;;5074283;28;20447;-65
2024/02/07 07:32:05;;;;;;;4.43;1.40;;;;;;;;;;5074163;28;20546;-66
2024/02/07 07:34:34;;;;;;;2.60;0.97;;;;;;;;;;5074187;28;20439;-65
2024/02/07 07:37:01;;;;;;;1.97;1.00;;;;;;;;;;5074040;28;20539;-66
2024/02/07 07:39:28;;;;;;;3.50;0.97;;;;;;;;;;5074231;28;21001;-66
2024/02/07 07:41:55;;;;;;;4.07;1.13;;;;;;;;;;5074029;28;20534;-65
2024/02/07 07:44:22;;;;;;;3.73;1.00;;;;;;;;;;5074081;28;20443;-66
2024/02/07 07:46:49;;;;;;;7.23;1.53;;;;;;;;;;5073861;28;20449;-65
2024/02/07 07:49:17;;;;;;;2.30;1.00;;;;;;;;;;5074169;28;20450;-65
2024/02/07 07:51:45;;;;;;;8.63;1.53;;;;;;;;;;5073612;28;20556;-65
2024/02/07 07:54:12;;;;;;;6.07;1.20;;;;;;;;;;5073846;28;20807;-66
2024/02/07 07:56:39;;;;;;;1.80;0.87;;;;;;;;;;5073813;28;20449;-66
2024/02/07 07:59:06;;;;;;;5.93;1.60;;;;;;;;;;5073603;28;20530;-65
2024/02/07 08:01:33;;;;;;;9.67;1.47;;;;;;;;;;5073622;28;20440;-65
2024/02/07 08:04:00;;;;;;;8.50;2.60;;;;;;;;;;5073310;28;20443;-66
2024/02/07 08:06:27;;;;;;;2.13;1.80;;;;;;;;;;5073356;28;20471;-62
2024/02/07 08:08:55;;;;;;;7.00;1.80;;;;;;;;;;5073159;28;20435;-63
2024/02/07 08:11:22;;;;;;;4.87;2.00;;;;;;;;;;5073367;28;20574;-64
2024/02/07 08:13:49;;;;;;;4.00;1.47;;;;;;;;;;5073373;28;20448;-67
2024/02/07 08:16:16;;;;;;;4.03;1.70;;;;;;;;;;5073348;28;20530;-66
2024/02/07 08:18:43;;;;;;;7.37;1.67;;;;;;;;;;5073144;28;20538;-65
2024/02/07 08:21:10;;;;;;;7.30;1.37;;;;;;;;;;5073038;28;20439;-65
2024/02/07 08:23:37;;;;;;;5.13;2.13;;;;;;;;;;5072701;28;20448;-67
2024/02/07 08:26:06;;;;;;;7.57;2.73;;;;;;;;;;5073023;28;20555;-65
2024/02/07 08:28:33;;;;;;;2.07;1.40;;;;;;;;;;5072944;28;20954;-63
2024/02/07 08:31:00;;;;;;;6.40;1.80;;;;;;;;;;5073019;28;20570;-63
2024/02/07 08:33:27;;;;;;;8.97;1.93;;;;;;;;;;5072813;28;20534;-63
2024/02/07 08:35:54;;;;;;;8.67;1.90;;;;;;;;;;5073154;28;20444;-66
2024/02/07 08:38:21;;;;;;;8.00;2.03;;;;;;;;;;5073351;28;20534;-68
2024/02/07 08:40:48;;;;;;;3.20;1.30;;;;;;;;;;5072931;28;21012;-67
2024/02/07 08:43:16;;;;;;;5.23;1.80;;;;;;;;;;5072706;28;20444;-67
2024/02/07 08:45:43;;;;;;;2.97;2.33;;;;;;;;;;5072836;28;20532;-63
2024/02/07 08:48:10;;;;;;;4.27;1.67;;;;;;;;;;5072872;28;20527;-67
2024/02/07 08:50:37;;;;;;;3.23;1.90;;;;;;;;;;5073008;28;20520;-64
2024/02/07 08:53:04;;;;;;;9.73;2.50;;;;;;;;;;5072793;28;20448;-64
2024/02/07 08:55:31;;;;;;;5.90;2.00;;;;;;;;;;5072393;28;20904;-64
2024/02/07 08:57:59;;;;;;;7.47;2.23;;;;;;;;;;5072622;28;20535;-68
2024/02/07 09:00:27;;;;;;;5.40;1.53;;;;;;;;;;5072517;28;20453;-65
2024/02/07 09:02:54;;;;;;;3.50;1.63;;;;;;;;;;5072779;28;20535;-66
2024/02/07 09:05:21;;;;;;;5.63;2.00;;;;;;;;;;5072740;28;20451;-66
2024/02/07 09:07:48;;;;;;;4.83;1.90;;;;;;;;;;5072603;28;20493;-66
2024/02/07 09:10:15;;;;;;;8.50;2.20;;;;;;;;;;5072519;28;20535;-64
2024/02/07 09:12:43;;;;;;;11.70;2.00;;;;;;;;;;5072562;28;20447;-68
2024/02/07 09:15:10;;;;;;;6.90;2.57;;;;;;;;;;5072452;28;20492;-68
2024/02/07 09:17:38;;;;;;;8.20;2.33;;;;;;;;;;5072509;28;20872;-63
2024/02/07 09:20:06;;;;;;;9.27;2.23;;;;;;;;;;5072639;28;20530;-64
2024/02/07 09:22:33;;;;;;;5.20;1.53;;;;;;;;;;5072399;28;21014;-64
2024/02/07 09:25:00;;;;;;;2.80;1.80;;;;;;;;;;5072226;28;20444;-66
2024/02/07 09:27:27;;;;;;;4.87;1.97;;;;;;;;;;5072249;28;20539;-66
2024/02/07 09:29:56;;;;;;;6.47;1.50;;;;;;;;;;5072298;28;20479;-67
2024/02/07 09:32:24;;;;;;;6.30;1.60;;;;;;;;;;5072466;28;20833;-66
2024/02/07 09:34:52;;;;;;;5.27;1.67;;;;;;;;;;5075814;28;20450;-66
2024/02/07 09:37:19;;;;;;;6.23;1.80;;;;;;;;;;5076316;28;20443;-66
2024/02/07 09:39:46;;;;;;;6.33;2.53;;;;;;;;;;5076209;28;20531;-63
2024/02/07 09:42:16;;;;;;;7.07;3.00;;;;;;;;;;5076096;28;20997;-68
2024/02/07 09:44:45;;;;;;;4.17;1.90;;;;;;;;;;5076048;28;20530;-66
2024/02/07 09:47:15;;;;;;;5.40;1.50;;;;;;;;;;5076301;28;20447;-66
2024/02/07 09:49:42;;;;;;;4.50;1.77;;;;;;;;;;5076125;28;20534;-64
2024/02/07 09:52:11;;;;;;;5.00;1.57;;;;;;;;;;5075923;28;20567;-64
2024/02/07 09:54:38;;;;;;;6.97;1.47;;;;;;;;;;5075850;28;20538;-64
2024/02/07 09:57:05;;;;;;;6.77;1.53;;;;;;;;;;5076001;28;20443;-64
2024/02/07 09:59:33;;;;;;;5.13;2.07;;;;;;;;;;5075942;28;20978;-63
2024/02/07 10:02:01;;;;;;;6.07;2.17;;;;;;;;;;5075349;28;20449;-63
2024/02/07 10:04:31;;;;;;;8.50;1.90;;;;;;;;;;5072683;28;20530;-63
2024/02/07 10:06:58;;;;;;;7.23;1.80;;;;;;;;;;5075340;28;20532;-64
2024/02/07 10:09:29;;;;;;;4.20;2.73;;;;;;;;;;5075866;28;20472;-64
2024/02/07 10:11:56;;;;;;;3.97;1.70;;;;;;;;;;5075557;28;20479;-63
2024/02/07 10:14:24;;;;;;;6.37;1.70;;;;;;;;;;5075679;28;20865;-64
2024/02/07 10:16:51;;;;;;;13.87;2.53;;;;;;;;;;5075405;28;20444;-66
2024/02/07 10:19:18;;;;;;;4.80;1.30;;;;;;;;;;5075352;28;20550;-66
2024/02/07 10:21:45;;;;;;;5.83;1.53;;;;;;;;;;5075168;28;20534;-64
2024/02/07 10:24:12;;;;;;;4.37;1.77;;;;;;;;;;5075548;28;20882;-67
2024/02/07 10:26:40;;;;;;;8.63;2.00;;;;;;;;;;5075112;28;20474;-64
2024/02/07 10:29:08;;;;;;;9.53;1.67;;;;;;;;;;5075110;28;20526;-63
2024/02/07 10:31:36;;;;;;;9.80;2.20;;;;;;;;;;5074501;28;20478;-63
2024/02/07 10:34:03;;;;;;;9.57;2.10;;;;;;;;;;5073938;28;20439;-64
2024/02/07 10:36:30;;;;;;;6.70;2.67;;;;;;;;;;5073895;28;20803;-62
2024/02/07 10:39:02;;;;;;;14.17;2.27;;;;;;;;;;5075220;28;20621;-62
2024/02/07 10:41:29;;;;;;;7.87;1.70;;;;;;;;;;5075139;28;20637;-61
2024/02/07 10:44:07;;;;;;;8.63;2.30;;;;;;;;;;5074968;28;20473;-63
2024/02/07 10:46:34;;;;;;;11.67;2.03;;;;;;;;;;5073803;28;20458;-61
2024/02/07 10:49:02;;;;;;;6.63;2.00;;;;;;;;;;5075122;28;20448;-65
2024/02/07 10:51:30;;;;;;;4.33;1.80;;;;;;;;;;5074718;28;20483;-65
2024/02/07 10:54:03;;;;;;;11.33;2.27;;;;;;;;;;5074850;28;20539;-65
2024/02/07 10:56:31;;;;;;;6.07;1.70;;;;;;;;;;5074861;28;20444;-65
2024/02/07 10:58:58;;;;;;;11.07;2.40;;;;;;;;;;5074600;28;20531;-64
2024/02/07 11:01:26;;;;;;;3.70;2.37;;;;;;;;;;5074533;28;20542;-64
2024/02/07 11:03:53;;;;;;;11.33;2.60;;;;;;;;;;5074556;28;20569;-65
2024/02/07 11:06:21;;;;;;;10.30;2.53;;;;;;;;;;5074645;28;20538;-65
2024/02/07 11:08:48;;;;;;;8.53;2.90;;;;;;;;;;5074492;28;20444;-62
2024/02/07 11:11:15;;;;;;;7.23;2.37;;;;;;;;;;5074384;28;20830;-66
2024/02/07 11:13:42;;;;;;;7.23;2.77;;;;;;;;;;5074100;28;20447;-67
2024/02/07 11:16:09;;;;;;;14.23;2.30;;;;;;;;;;5074321;28;20877;-68
2024/02/07 11:18:37;;;;;;;10.03;2.53;;;;;;;;;;5074314;28;20554;-68
2024/02/07 11:21:05;;;;;;;7.40;2.30;;;;;;;;;;5074286;28;20447;-65
2024/02/07 11:23:35;;;;;;;12.00;3.30;;;;;;;;;;5074286;28;20526;-65
2024/02/07 11:26:02;;;;;;;5.73;2.60;;;;;;;;;;5073976;28;20475;-66
2024/02/07 11:28:29;;;;;;;5.37;2.20;;;;;;;;;;5073966;28;20458;-66
2024/02/07 11:30:58;;;;;;;3.83;1.63;;;;;;;;;;5073997;28;20532;-66
2024/02/07 11:33:25;;;;;;;5.70;2.20;;;;;;;;;;5073981;28;20444;-66
2024/02/07 11:35:53;;;;;;;11.70;2.77;;;;;;;;;;5073972;28;20486;-63
2024/02/07 11:38:21;;;;;;;4.80;2.27;;;;;;;;;;5073919;28;20884;-62
2024/02/07 11:40:48;;;;;;;5.80;1.90;;;;;;;;;;5073704;28;20531;-62
2024/02/07 11:43:21;;;;;;;4.93;1.33;;;;;;;;;;5074040;28;20542;-63
2024/02/07 11:45:50;;;;;;;9.27;3.10;;;;;;;;;;5073603;28;20978;-63
2024/02/07 11:48:18;;;;;;;14.13;1.60;;;;;;;;;;5073722;28;20451;-64
2024/02/07 11:50:46;;;;;;;15.43;1.83;;;;;;;;;;5073547;28;20811;-63
2024/02/07 11:53:20;;;;;;;5.43;1.70;;;;;;;;;;5073483;28;20513;-63
2024/02/07 11:55:48;;;;;;;7.13;1.80;;;;;;;;;;5073358;28;20478;-65
2024/02/07 11:58:16;;;;;;;4.43;1.33;;;;;;;;;;5073564;28;20451;-65
2024/02/07 12:00:43;;;;;;;4.60;1.20;;;;;;;;;;5073591;28;20869;-66
2024/02/07 12:03:14;;;;;;;5.83;2.30;;;;;;;;;;5073263;28;21018;-66
2024/02/07 12:05:41;;;;;;;9.40;2.40;;;;;;;;;;5073064;28;20447;-66
2024/02/07 12:08:08;;;;;;;11.70;2.77;;;;;;;;;;5073300;28;20539;-70
2024/02/07 12:10:36;;;;;;;3.43;1.53;;;;;;;;;;5073423;28;20535;-66
2024/02/07 12:13:04;;;;;;;3.60;1.67;;;;;;;;;;5073394;28;20575;-67
2024/02/07 12:15:31;;;;;;;11.53;2.17;;;;;;;;;;5073169;28;20538;-67
2024/02/07 12:17:58;;;;;;;3.00;1.60;;;;;;;;;;5073062;28;20501;-71
2024/02/07 12:20:27;;;;;;;8.90;2.23;;;;;;;;;;5073103;28;20542;-72
2024/02/07 12:22:58;;;;;;;6.47;2.30;;;;;;;;;;5073486;28;20881;-74
2024/02/07 12:25:25;;;;;;;4.90;1.80;;;;;;;;;;5073070;28;20471;-74
2024/02/07 12:27:53;;;;;;;5.33;2.07;;;;;;;;;;5072906;28;20530;-72
2024/02/07 12:30:20;;;;;;;3.87;1.40;;;;;;;;;;5073000;28;20988;-77
2024/02/07 12:32:47;;;;;;;6.40;2.03;;;;;;;;;;5072728;28;20483;-69
2024/02/07 12:35:14;;;;;;;8.60;2.13;;;;;;;;;;5073017;28;20534;-70
2024/02/07 12:37:42;;;;;;;3.73;1.40;;;;;;;;;;5073025;28;20533;-66
2024/02/07 12:40:12;;;;;;;3.87;1.53;;;;;;;;;;5072932;28;20534;-69
2024/02/07 12:42:38;;;;;;;4.73;1.67;;;;;;;;;;5072975;28;20534;-69
2024/02/07 12:45:10;;;;;;;5.23;2.00;;;;;;;;;;5072849;28;20868;-69
2024/02/07 12:47:37;;;;;;;4.30;1.50;;;;;;;;;;5072856;28;20919;-69
2024/02/07 12:50:05;;;;;;;4.80;1.60;;;;;;;;;;5072761;28;20534;-69
2024/02/07 12:52:32;;;;;;;8.67;2.40;;;;;;;;;;5072717;28;20489;-69
2024/02/07 12:55:01;;;;;;;4.60;1.40;;;;;;;;;;5072742;28;20810;-68
2024/02/07 12:57:30;;;;;;;7.77;1.87;;;;;;;;;;5072618;28;20927;-67
2024/02/07 12:59:57;;;;;;;3.93;1.60;;;;;;;;;;5072404;28;20958;-67
2024/02/07 13:02:25;;;;;;;5.00;1.50;;;;;;;;;;5072928;28;20455;-66
2024/02/07 13:04:52;;;;;;;5.30;1.67;;;;;;;;;;5072674;28;20827;-67
2024/02/07 13:07:19;;;;;;;11.33;1.77;;;;;;;;;;5072791;28;20454;-65
2024/02/07 13:09:46;;;;;;;5.37;2.30;;;;;;;;;;5076000;28;20450;-64
2024/02/07 13:12:13;;;;;;;8.67;2.03;;;;;;;;;;5076633;28;20482;-67
2024/02/07 13:14:40;;;;;;;4.03;1.60;;;;;;;;;;5076536;28;20538;-67
2024/02/07 13:17:07;;;;;;;3.53;1.63;;;;;;;;;;5076446;28;20943;-63
2024/02/07 13:19:36;;;;;;;6.50;2.47;;;;;;;;;;5076182;28;20841;-63
2024/02/07 13:22:02;;;;;;;6.97;1.30;;;;;;;;;;5076357;28;20450;-64
2024/02/07 13:24:29;;;;;;;5.50;1.70;;;;;;;;;;5076314;28;20444;-67
2024/02/07 13:26:56;;;;;;;7.90;1.87;;;;;;;;;;5075755;28;20459;-73
2024/02/07 13:29:23;;;;;;;11.77;1.83;;;;;;;;;;5076045;28;20960;-65
2024/02/07 13:31:50;;;;;;;12.80;2.93;;;;;;;;;;5076412;28;21123;-63
2024/02/07 13:34:17;;;;;;;7.33;1.50;;;;;;;;;;5076365;28;20447;-74
2024/02/07 13:36:46;;;;;;;6.23;2.13;;;;;;;;;;5076292;28;20539;-70
2024/02/07 13:39:13;;;;;;;11.13;1.93;;;;;;;;;;5076133;28;20493;-69
2024/02/07 13:41:40;;;;;;;5.40;1.20;;;;;;;;;;5076116;28;20539;-65
2024/02/07 13:44:07;;;;;;;6.83;1.67;;;;;;;;;;5076257;28;20447;-67
2024/02/07 13:46:35;;;;;;;5.60;1.97;;;;;;;;;;5075869;28;20439;-68
2024/02/07 13:49:04;;;;;;;7.80;1.87;;;;;;;;;;5075926;28;20500;-73
2024/02/07 13:51:31;;;;;;;8.53;1.90;;;;;;;;;;5075732;28;20480;-68
2024/02/07 13:53:59;;;;;;;3.00;1.10;;;;;;;;;;5075893;28;20448;-65
2024/02/07 13:56:26;;;;;;;10.30;1.60;;;;;;;;;;5075790;28;20446;-65
2024/02/07 13:58:53;;;;;;;7.33;2.77;;;;;;;;;;5075921;28;20443;-66
2024/02/07 14:01:20;;;;;;;13.00;1.97;;;;;;;;;;5075838;28;20532;-64
2024/02/07 14:03:47;;;;;;;7.87;2.37;;;;;;;;;;5075698;28;20550;-68
2024/02/07 14:06:14;;;;;;;5.30;2.10;;;;;;;;;;5075484;28;21034;-67
2024/02/07 14:08:41;;;;;;;3.47;1.37;;;;;;;;;;5075446;28;20527;-68
2024/02/07 14:11:09;;;;;;;3.93;1.90;;;;;;;;;;5074271;28;20486;-68
2024/02/07 14:13:36;;;;;;;8.93;1.70;;;;;;;;;;5074199;28;20569;-68
2024/02/07 14:16:03;;;;;;;7.03;1.50;;;;;;;;;;5073674;28;20527;-67
2024/02/07 14:18:30;;;;;;;6.07;1.60;;;;;;;;;;5073567;28;20997;-68
2024/02/07 14:20:58;;;;;;;5.83;1.60;;;;;;;;;;5073430;28;20530;-68
2024/02/07 14:23:25;;;;;;;3.80;1.30;;;;;;;;;;5073260;28;20548;-68
2024/02/07 14:25:52;;;;;;;4.00;1.73;;;;;;;;;;5073336;28;20558;-68
2024/02/07 14:28:20;;;;;;;4.77;1.00;;;;;;;;;;5073504;28;20542;-68
2024/02/07 14:30:47;;;;;;;3.70;1.13;;;;;;;;;;5074639;28;20450;-67
2024/02/07 14:33:14;;;;;;;3.40;1.20;;;;;;;;;;5075321;28;20483;-68
2024/02/07 14:35:41;;;;;;;5.27;1.10;;;;;;;;;;5075165;28;20823;-68
2024/02/07 14:38:09;;;;;;;6.47;2.07;;;;;;;;;;5075162;28;20989;-68
2024/02/07 14:40:36;;;;;;;4.60;1.47;;;;;;;;;;5075326;28;20490;-68
2024/02/07 14:43:03;;;;;;;9.07;1.17;;;;;;;;;;5075185;28;20448;-68
2024/02/07 14:45:31;;;;;;;3.77;1.03;;;;;;;;;;5074403;28;20443;-68
2024/02/07 14:48:00;;;;;;;5.13;1.53;;;;;;;;;;5075018;28;20447;-68
2024/02/07 14:50:27;;;;;;;4.40;1.57;;;;;;;;;;5074896;28;20444;-68
2024/02/07 14:52:54;;;;;;;3.10;1.23;;;;;;;;;;5074927;28;20515;-68
2024/02/07 14:55:21;;;;;;;3.37;1.30;;;;;;;;;;5075080;28;20803;-68
2024/02/07 14:57:48;;;;;;;5.60;1.80;;;;;;;;;;5075000;28;20792;-68
2024/02/07 15:00:15;;;;;;;2.80;1.13;;;;;;;;;;5074875;28;20458;-68
2024/02/07 15:02:44;;;;;;;4.10;1.40;;;;;;;;;;5074754;28;20527;-67
2024/02/07 15:05:12;;;;;;;3.37;1.37;;;;;;;;;;5074674;28;20564;-68
2024/02/07 15:07:39;;;;;;;2.50;1.30;;;;;;;;;;5074824;28;20931;-68
2024/02/07 15:10:07;;;;;;;2.00;1.20;;;;;;;;;;5074592;28;20878;-68
2024/02/07 15:12:34;;;;;;;3.03;1.30;;;;;;;;;;5074490;28;20986;-68
2024/02/07 15:15:01;;;;;;;19.30;2.93;;;;;;;;;;5074529;28;20450;-67
2024/02/07 15:17:28;;;;;;;2.60;0.87;;;;;;;;;;5074453;28;20538;-68
2024/02/07 15:19:56;;;;;;;2.07;1.00;;;;;;;;;;5074624;28;20447;-68
2024/02/07 15:22:23;;;;;;;6.60;1.23;;;;;;;;;;5074490;28;20802;-68
2024/02/07 15:24:50;;;;;;;3.17;1.13;;;;;;;;;;5074412;28;20534;-68
2024/02/07 15:27:17;;;;;;;3.80;1.07;;;;;;;;;;5074056;28;20592;-68
2024/02/07 15:29:44;;;;;;;4.90;1.63;;;;;;;;;;5074211;28;20939;-67
2024/02/07 15:32:11;;;;;;;4.00;1.20;;;;;;;;;;5073496;28;20530;-68
2024/02/07 15:34:38;;;;;;;3.00;1.10;;;;;;;;;;5074235;28;20551;-67
2024/02/07 15:37:06;;;;;;;5.13;1.40;;;;;;;;;;5074004;28;20545;-68
2024/02/07 15:39:33;;;;;;;4.57;1.87;;;;;;;;;;5074105;28;20939;-68
2024/02/07 15:42:00;;;;;;;8.20;2.20;;;;;;;;;;5073871;28;21046;-68
2024/02/07 15:44:27;;;;;;;3.53;1.20;;;;;;;;;;5073773;28;20534;-68
2024/02/07 15:46:54;;;;;;;2.90;1.30;;;;;;;;;;5074047;28;20477;-68
2024/02/07 15:49:21;;;;;;;2.07;1.20;;;;;;;;;;5074056;28;20538;-68
2024/02/07 15:51:50;;;;;;;3.67;1.17;;;;;;;;;;5073901;28;20448;-68